Airfield :
LOGIN :

Register | Disclaimer

   EN    FR    IT 

 










Legend :    VFR   Marginal VFR   IFR   Intensive IFR   Very Intensive IFR
Visi :
Ceiling :
>= 8 km
>= 3000ft
5 to 8 km
1000 to 3000 ft
1500m to 5 km
500 to 1000 ft
800 to 1500m
200 to 500 ft
< 800m
< 200 ft
Symbols :   Thunderstorms  Fog  Heavy snow  Heavy precipitations  Wind > 20 kt
SIGMETs :     Misc.  Thunderstorms  Icing  Turbulence  Mountain Waves  Volcanic Ashes






- Airport Elevation : 1058 ft
- IATA code : SCN


EDDR - Saarbrücken

CURRENT METAR :
  • 180450Z VRB02KT 0500 R27/1800D FG BKN001 BKN030 03/03 Q1036 NOSIG

EXPIRED METARs :
  • 180420Z VRB02KT 0600 R27/1900N FG BKN001 OVC030 03/03 Q1036
  • 180350Z 30003KT 260V330 0900 R27/2000N FG OVC001 03/03 Q1036
  • 180320Z VRB02KT 1800 BR OVC002 03/03 Q1036
  • 180250Z 28003KT 1200 R27/P2000N BR OVC002 03/03 Q1036
  • 180220Z 29003KT 2500 BR OVC003 03/03 Q1036

TAF AMD TAF EDDR
Valid from the 18 at 04:00 until the 19 at 00:00 UTC


180440Z 1804/1824 VRB03KT 1500 BR OVC002
TEMPO 1804/1806 0500 FG VV000
BECMG 1806/1809 9000 BKN012
BECMG 1809/1812 06009KT SCT012
PROB30
TEMPO 1820/1824 3000 BR



MET'MAP, your aeronautical weather chart ! - Copyright ORBIFLY December 2007 - Disclaimer

ORBIFLY MET'MAP TEAM :

Programming & Development : Alexandra Zaïnal
Concept & original design : Baudouin d'Aumeries
Assistance for programming : Marc-Olivier Méhu
Technical & hardware support : Manuel Goepfert

Contact : metmap@orbifly.com




SOURCES & CREDITS :

   NOAA